Hlavní strana
METAR-TAF:

METAR-TAF

Letiště :

Győr, Maďarsko

zeměpisná šířka: 47-37-28N, zeměpisná délka: 017-48-49E, výška: 129 m

Aktuální stav počasí

Zpráva byla vytvořena před 37 minutami, v 17:15 UTC
Severoseverozápadní vítr 8 kt
Teplota 1°C
Vlhkost vzduchu 75%
Tlak 1019 hPa
Viditelnost 10 km a více
Žádná oblačnost pod 1500 m, nevyskytují se cumulonimby.

METAR: LHPR 181715Z AUTO 33008KT CAVOK 01/M03 Q1019 RMK BLU

Čas: 18:52 (17:52 UTC)

Předpověď počasí

Zpráva byla vytvořena před 37 minutami, v 17:15 UTC
Předpověď platná od 18 v 18 UTC do 19 v 03 UTC
Západní vítr 6 kt
Viditelnost 10 km a více
Žádná oblačnost pod 1500 m, nevyskytují se cumulonimby.

TAF: LHPR 181715Z 1818/1903 26006KT CAVOK

Stav a předpovědi počasí z více než 4 000 letišť (zprávy METAR a TAF).

Červené a žluté tečky na mapě představují dostupné meteorologické stanice.

Když kurzor umístíte na tečku, zobrazí se název stanice.

Pak kliknutím zobrazíte stav a předpověď počasí.

Chcete-li změnit mapu, kliknutím na zelené tlačítko se znaménkem +mapu přiblížíte, kliknutím na zelené tlačítko se znaménkem – mapu oddálíte a kliknutím na zelené šipky přejdete na sousední mapy.


METAR-TAF: